Airfield :
LOGIN :

Register | Disclaimer

   EN    FR    IT 

 










Legend :    VFR   Marginal VFR   IFR   Intensive IFR   Very Intensive IFR
Visi :
Ceiling :
>= 8 km
>= 3000ft
5 to 8 km
1000 to 3000 ft
1500m to 5 km
500 to 1000 ft
800 to 1500m
200 to 500 ft
< 800m
< 200 ft
Symbols :   Thunderstorms  Fog  Heavy snow  Heavy precipitations  Wind > 20 kt
SIGMETs :     Misc.  Thunderstorms  Icing  Turbulence  Mountain Waves  Volcanic Ashes







- Airport Elevation : 313 ft
- IATA code : LEH
- Download approach charts


LFOH - Le Havre Octeville

CURRENT METAR :
  • 201500Z AUTO 28005KT 230V330 CAVOK 19/11 Q1026 NOSIG

EXPIRED METARs :
  • 201430Z AUTO 32006KT 290V360 CAVOK 18/11 Q1026 NOSIG
  • 201400Z AUTO 31005KT 240V340 CAVOK 18/11 Q1026 NOSIG
  • 201330Z AUTO 27004KT 230V310 CAVOK 18/11 Q1026 NOSIG
  • 201300Z AUTO 29004KT 250V340 CAVOK 18/11 Q1026 NOSIG
  • 201230Z AUTO 29005KT 250V340 CAVOK 18/10 Q1026 NOSIG

TAF TAF LFOH
Valid from the 20 at 12:00 until the 21 at 12:00 UTC


201100Z 2012/2112 VRB03KT 9999 SCT025
BECMG 2022/2024 15010KT
BECMG 2102/2104 23010KT OVC013
TEMPO 2104/2112 4000 RA OVC005
ATIS : +33 2 35 54 64 93
No reported NOTAMs for that airfield.



MET'MAP, your aeronautical weather chart ! - Copyright ORBIFLY December 2007 - Disclaimer

ORBIFLY MET'MAP TEAM :

Programming & Development : Alexandra Zaïnal
Concept & Development : Baudouin d'Aumeries
Co-Development & Prog : Marc-Olivier Méhu
Technical & hardware support : Manuel Goepfert

Contact : metmap@orbifly.com




SOURCES & CREDITS :

   NOAA